Time,TemperatureF,DewpointF,PressureIn,WindDirection,WindDirectionDegrees,WindSpeedMPH,WindSpeedGustMPH,Humidity,HourlyPrecipIn,Conditions,Clouds,dailyrainin,SoftwareType,DateUTC
2013-03-01 00:00:00,32.1,27.2,29.85,NW,315,0.0,1.7,82,0.00,,---,0.00,VWS V14.00,2013-03-01 05:00:00,
2013-03-01 00:01:00,32.1,27.2,29.85,NW,315,0.0,0.0,82,0.00,,---,0.00,VWS V14.00,2013-03-01 05:01:00,
2013-03-01 00:06:00,32.1,27.2,29.85,ENE,68,0.0,0.6,82,0.00,,---,0.00,VWS V14.00,2013-03-01 05:06:00,
2013-03-01 00:11:00,32.1,27.2,29.85,ENE,68,0.0,0.0,82,0.00,,---,0.00,VWS V14.00,2013-03-01 05:11:00,
2013-03-01 00:16:00,32.1,27.2,29.85,ENE,68,1.1,4.6,82,0.00,,---,0.00,VWS V14.00,2013-03-01 05:16:00,
2013-03-01 00:21:00,32.1,27.2,29.85,ENE,68,0.0,0.0,82,0.00,,---,0.00,VWS V14.00,2013-03-01 05:21:00,
2013-03-01 00:26:00,32.1,27.5,29.85,NNE,22,1.1,4.2,83,0.00,,---,0.00,VWS V14.00,2013-03-01 05:26:00,
2013-03-01 00:31:00,32.3,27.7,29.85,NNE,22,1.1,1.1,83,0.00,,---,0.00,VWS V14.00,2013-03-01 05:31:00,
2013-03-01 00:36:00,32.3,27.7,29.85,NNE,22,0.0,1.1,83,0.00,,---,0.00,VWS V14.00,2013-03-01 05:36:00,
2013-03-01 00:41:00,32.3,27.7,29.85,NNE,22,0.0,0.0,83,0.00,,---,0.00,VWS V14.00,2013-03-01 05:41:00,
2013-03-01 00:46:00,32.3,27.7,29.85,NNE,22,0.0,0.0,83,0.00,,---,0.00,VWS V14.00,2013-03-01 05:46:00,
2013-03-01 00:51:00,32.3,27.7,29.85,North,0,3.8,3.8,83,0.00,,---,0.00,VWS V14.00,2013-03-01 05:51:00,
2013-03-01 00:56:00,32.1,27.5,29.85,North,0,0.6,3.8,83,0.00,,---,0.00,VWS V14.00,2013-03-01 05:56:00,
2013-03-01 01:01:00,32.1,27.5,29.85,North,0,0.0,0.0,83,0.00,,---,0.00,VWS V14.00,2013-03-01 06:01:00,
2013-03-01 01:06:00,31.8,27.2,29.85,North,0,0.0,0.0,83,0.00,,---,0.00,VWS V14.00,2013-03-01 06:06:00,
2013-03-01 01:11:00,31.8,27.2,29.85,NNW,338,1.1,1.1,83,0.00,,---,0.00,VWS V14.00,2013-03-01 06:11:00,
2013-03-01 01:16:00,31.8,27.5,29.85,WNW,292,1.3,1.3,84,0.00,,---,0.00,VWS V14.00,2013-03-01 06:16:00,
2013-03-01 01:21:00,31.8,27.5,29.85,WNW,292,2.4,2.4,84,0.00,,---,0.00,VWS V14.00,2013-03-01 06:21:00,
2013-03-01 01:26:00,31.8,27.5,29.85,ENE,68,2.6,4.0,84,0.00,,---,0.00,VWS V14.00,2013-03-01 06:26:00,
2013-03-01 01:31:00,32.0,27.7,29.84,ENE,68,1.7,2.4,84,0.00,,---,0.00,VWS V14.00,2013-03-01 06:31:00,
2013-03-01 01:36:00,32.1,27.8,29.84,North,0,0.0,2.4,84,0.00,,---,0.00,VWS V14.00,2013-03-01 06:36:00,
2013-03-01 01:41:00,32.1,28.1,29.84,WNW,292,6.2,6.4,85,0.00,,---,0.00,VWS V14.00,2013-03-01 06:41:00,
2013-03-01 01:46:00,32.1,28.1,29.84,WNW,292,3.3,6.4,85,0.00,,---,0.00,VWS V14.00,2013-03-01 06:46:00,
2013-03-01 01:51:00,32.1,28.1,29.84,NW,315,4.4,4.4,85,0.00,,---,0.00,VWS V14.00,2013-03-01 06:51:00,
2013-03-01 01:56:00,32.1,28.1,29.84,North,0,4.4,4.4,85,0.00,,---,0.00,VWS V14.00,2013-03-01 06:56:00,
2013-03-01 02:01:00,32.1,28.1,29.84,North,0,0.0,0.0,85,0.00,,---,0.00,VWS V14.00,2013-03-01 07:01:00,
2013-03-01 02:06:00,32.1,28.1,29.84,North,0,0.0,0.0,85,0.00,,---,0.00,VWS V14.00,2013-03-01 07:06:00,
2013-03-01 02:11:00,32.1,28.1,29.84,WNW,292,3.8,3.8,85,0.00,,---,0.00,VWS V14.00,2013-03-01 07:11:00,
2013-03-01 02:16:00,31.8,27.8,29.84,WNW,292,1.1,3.8,85,0.00,,---,0.00,VWS V14.00,2013-03-01 07:16:00,
2013-03-01 02:21:00,31.8,27.8,29.84,ENE,68,2.0,2.0,85,0.00,,---,0.00,VWS V14.00,2013-03-01 07:21:00,
2013-03-01 02:26:00,31.6,27.6,29.83,ENE,68,0.0,2.0,85,0.00,,---,0.00,VWS V14.00,2013-03-01 07:26:00,
2013-03-01 02:31:00,31.6,27.6,29.83,ENE,68,0.0,0.0,85,0.00,,---,0.00,VWS V14.00,2013-03-01 07:31:00,
2013-03-01 02:36:00,31.2,27.5,29.83,ENE,68,0.0,2.6,86,0.00,,---,0.00,VWS V14.00,2013-03-01 07:36:00,
2013-03-01 02:41:00,31.2,27.5,29.83,ENE,68,2.0,2.0,86,0.00,,---,0.00,VWS V14.00,2013-03-01 07:41:00,
2013-03-01 02:46:00,31.2,27.5,29.84,WNW,292,4.4,4.4,86,0.00,,---,0.00,VWS V14.00,2013-03-01 07:46:00,
2013-03-01 02:51:00,31.2,27.5,29.84,WNW,292,0.0,0.0,86,0.00,,---,0.00,VWS V14.00,2013-03-01 07:51:00,
2013-03-01 02:56:00,31.2,27.5,29.83,WNW,292,0.8,1.5,86,0.00,,---,0.00,VWS V14.00,2013-03-01 07:56:00,
2013-03-01 03:02:00,31.2,27.5,29.83,WNW,292,0.0,2.0,86,0.00,,---,0.00,VWS V14.00,2013-03-01 08:02:00,
2013-03-01 03:07:00,31.2,27.5,29.83,WNW,292,0.0,2.0,86,0.00,,---,0.00,VWS V14.00,2013-03-01 08:07:00,
2013-03-01 03:12:00,31.2,27.5,29.82,NW,315,1.7,1.7,86,0.00,,---,0.00,VWS V14.00,2013-03-01 08:12:00,
2013-03-01 03:17:00,31.2,27.5,29.83,WNW,292,0.0,2.6,86,0.00,,---,0.00,VWS V14.00,2013-03-01 08:17:00,
2013-03-01 03:22:00,31.2,27.5,29.82,WNW,292,0.0,0.0,86,0.00,,---,0.00,VWS V14.00,2013-03-01 08:22:00,
2013-03-01 03:27:00,31.2,27.5,29.82,WNW,292,0.0,0.8,86,0.00,,---,0.00,VWS V14.00,2013-03-01 08:27:00,
2013-03-01 03:32:00,31.4,28.0,29.82,NW,315,0.0,0.0,87,0.00,,---,0.00,VWS V14.00,2013-03-01 08:32:00,
2013-03-01 03:37:00,31.2,27.8,29.82,NW,315,0.0,0.0,87,0.00,,---,0.00,VWS V14.00,2013-03-01 08:37:00,
2013-03-01 03:42:00,31.6,28.2,29.82,NW,315,0.0,0.0,87,0.00,,---,0.00,VWS V14.00,2013-03-01 08:42:00,
2013-03-01 03:47:00,31.6,28.2,29.82,NW,315,1.7,1.7,87,0.00,,---,0.00,VWS V14.00,2013-03-01 08:47:00,
2013-03-01 03:52:00,31.6,28.2,29.82,WNW,292,0.6,0.6,87,0.00,,---,0.00,VWS V14.00,2013-03-01 08:52:00,
2013-03-01 03:57:00,31.6,28.2,29.82,NW,315,0.0,0.6,87,0.00,,---,0.00,VWS V14.00,2013-03-01 08:57:00,
2013-03-01 04:02:00,31.6,28.2,29.83,NW,315,2.0,2.0,87,0.00,,---,0.00,VWS V14.00,2013-03-01 09:02:00,
2013-03-01 04:07:00,31.6,28.2,29.83,WNW,292,2.6,2.6,87,0.00,,---,0.00,VWS V14.00,2013-03-01 09:07:00,
2013-03-01 04:12:00,31.6,28.2,29.83,WNW,292,0.0,0.0,87,0.00,,---,0.00,VWS V14.00,2013-03-01 09:12:00,
2013-03-01 04:17:00,31.6,28.2,29.83,WNW,292,0.0,4.0,87,0.00,,---,0.00,VWS V14.00,2013-03-01 09:17:00,
2013-03-01 04:22:00,31.6,28.2,29.83,WNW,292,0.0,0.0,87,0.00,,---,0.00,VWS V14.00,2013-03-01 09:22:00,
2013-03-01 04:27:00,31.6,28.2,29.83,WNW,292,0.0,0.0,87,0.00,,---,0.00,VWS V14.00,2013-03-01 09:27:00,
2013-03-01 04:32:00,31.6,28.5,29.83,WNW,292,0.0,0.0,88,0.00,,---,0.00,VWS V14.00,2013-03-01 09:32:00,
2013-03-01 04:37:00,31.6,28.5,29.83,WNW,292,0.0,1.5,88,0.00,,---,0.00,VWS V14.00,2013-03-01 09:37:00,
2013-03-01 04:42:00,31.6,28.5,29.83,WNW,292,0.0,0.0,88,0.00,,---,0.00,VWS V14.00,2013-03-01 09:42:00,
2013-03-01 04:47:00,31.6,28.5,29.84,WNW,292,0.0,1.7,88,0.00,,---,0.00,VWS V14.00,2013-03-01 09:47:00,
2013-03-01 04:52:00,31.6,28.5,29.84,WNW,292,0.0,0.0,88,0.00,,---,0.00,VWS V14.00,2013-03-01 09:52:00,
2013-03-01 04:57:00,31.6,28.5,29.85,WNW,292,0.0,2.4,88,0.00,,---,0.00,VWS V14.00,2013-03-01 09:57:00,
2013-03-01 05:02:00,31.6,28.5,29.85,WNW,292,0.0,0.0,88,0.00,,---,0.00,VWS V14.00,2013-03-01 10:02:00,
2013-03-01 05:07:00,31.6,28.5,29.85,WNW,292,1.3,1.3,88,0.00,,---,0.00,VWS V14.00,2013-03-01 10:07:00,
2013-03-01 05:12:00,31.6,28.5,29.85,WNW,292,0.0,0.0,88,0.00,,---,0.00,VWS V14.00,2013-03-01 10:12:00,
2013-03-01 05:17:00,31.6,28.5,29.85,WNW,292,1.1,1.1,88,0.00,,---,0.00,VWS V14.00,2013-03-01 10:17:00,
2013-03-01 05:22:00,31.6,28.5,29.85,WNW,292,0.0,0.0,88,0.00,,---,0.00,VWS V14.00,2013-03-01 10:22:00,
2013-03-01 05:27:00,31.6,28.5,29.85,WNW,292,0.0,0.0,88,0.00,,---,0.00,VWS V14.00,2013-03-01 10:27:00,
2013-03-01 05:32:00,31.6,28.5,29.86,WNW,292,0.0,0.0,88,0.00,,---,0.00,VWS V14.00,2013-03-01 10:32:00,
2013-03-01 05:37:00,31.8,28.7,29.85,WNW,292,0.0,0.0,88,0.00,,---,0.00,VWS V14.00,2013-03-01 10:37:00,
2013-03-01 05:42:00,31.8,28.7,29.85,WNW,292,0.0,0.0,88,0.00,,---,0.00,VWS V14.00,2013-03-01 10:42:00,
2013-03-01 05:47:00,31.8,28.7,29.85,WNW,292,0.0,0.0,88,0.00,,---,0.00,VWS V14.00,2013-03-01 10:47:00,
2013-03-01 05:52:00,31.8,28.7,29.85,WNW,292,0.0,0.0,88,0.00,,---,0.00,VWS V14.00,2013-03-01 10:52:00,
2013-03-01 05:57:00,31.8,28.7,29.85,WNW,292,0.0,0.0,88,0.00,,---,0.00,VWS V14.00,2013-03-01 10:57:00,
2013-03-01 06:02:00,31.8,28.7,29.85,WNW,292,0.0,1.5,88,0.00,,---,0.00,VWS V14.00,2013-03-01 11:02:00,
2013-03-01 06:07:00,31.8,28.7,29.85,WNW,292,0.0,1.5,88,0.00,,---,0.00,VWS V14.00,2013-03-01 11:07:00,
2013-03-01 06:12:00,31.8,28.7,29.85,WNW,292,0.0,0.0,88,0.00,,---,0.00,VWS V14.00,2013-03-01 11:12:00,
2013-03-01 06:17:00,31.8,28.7,29.86,WNW,292,0.0,0.0,88,0.00,,---,0.00,VWS V14.00,2013-03-01 11:17:00,
2013-03-01 06:22:00,31.8,28.7,29.85,WNW,292,0.0,0.0,88,0.00,,---,0.00,VWS V14.00,2013-03-01 11:22:00,
2013-03-01 06:27:00,31.8,28.7,29.85,WNW,292,0.0,0.0,88,0.00,,---,0.00,VWS V14.00,2013-03-01 11:27:00,
2013-03-01 06:32:00,31.8,28.7,29.85,WNW,292,0.0,0.0,88,0.00,,---,0.00,VWS V14.00,2013-03-01 11:32:00,
2013-03-01 06:37:00,31.8,28.7,29.85,WNW,292,0.0,0.0,88,0.00,,---,0.00,VWS V14.00,2013-03-01 11:37:00,
2013-03-01 06:42:00,31.8,28.7,29.85,WNW,292,0.0,0.0,88,0.00,,---,0.00,VWS V14.00,2013-03-01 11:42:00,
2013-03-01 06:47:00,31.8,28.7,29.85,WNW,292,0.0,0.0,88,0.00,,---,0.00,VWS V14.00,2013-03-01 11:47:00,
2013-03-01 06:53:00,31.8,28.7,29.85,WNW,292,0.0,0.0,88,0.00,,---,0.00,VWS V14.00,2013-03-01 11:53:00,
2013-03-01 06:58:00,31.8,28.7,29.85,WNW,292,0.0,0.0,88,0.00,,---,0.00,VWS V14.00,2013-03-01 11:58:00,
2013-03-01 07:03:00,31.8,28.7,29.85,WNW,292,0.0,0.0,88,0.00,,---,0.00,VWS V14.00,2013-03-01 12:03:00,
2013-03-01 07:08:00,32.0,29.1,29.85,WNW,292,0.0,0.0,89,0.00,,---,0.00,VWS V14.00,2013-03-01 12:08:00,
2013-03-01 07:13:00,32.1,29.2,29.85,WNW,292,0.0,0.0,89,0.00,,---,0.00,VWS V14.00,2013-03-01 12:13:00,
2013-03-01 07:18:00,32.1,29.2,29.85,WNW,292,0.0,0.4,89,0.00,,---,0.00,VWS V14.00,2013-03-01 12:18:00,
2013-03-01 07:23:00,32.1,29.2,29.85,WNW,292,2.2,2.2,89,0.00,,---,0.00,VWS V14.00,2013-03-01 12:23:00,
2013-03-01 07:28:00,32.1,29.2,29.85,WNW,292,0.0,2.2,89,0.00,,---,0.00,VWS V14.00,2013-03-01 12:28:00,
2013-03-01 07:33:00,32.1,29.2,29.85,WNW,292,1.7,1.7,89,0.00,,---,0.00,VWS V14.00,2013-03-01 12:33:00,
2013-03-01 07:38:00,32.3,29.4,29.85,WNW,292,1.3,1.7,89,0.00,,---,0.00,VWS V14.00,2013-03-01 12:38:00,
2013-03-01 07:43:00,32.5,29.6,29.85,WNW,292,0.8,0.8,89,0.00,,---,0.00,VWS V14.00,2013-03-01 12:43:00,
2013-03-01 07:48:00,32.5,29.6,29.86,WNW,292,0.0,0.8,89,0.00,,---,0.00,VWS V14.00,2013-03-01 12:48:00,
2013-03-01 07:53:00,32.7,29.8,29.86,WNW,292,0.0,0.6,89,0.00,,---,0.00,VWS V14.00,2013-03-01 12:53:00,
2013-03-01 07:58:00,32.9,30.0,29.86,WNW,292,0.0,0.6,89,0.00,,---,0.00,VWS V14.00,2013-03-01 12:58:00,
2013-03-01 08:03:00,33.0,30.1,29.86,WNW,292,1.1,1.1,89,0.00,,---,0.00,VWS V14.00,2013-03-01 13:03:00,
2013-03-01 08:08:00,33.0,30.1,29.87,WNW,292,1.1,1.1,89,0.00,,---,0.00,VWS V14.00,2013-03-01 13:08:00,
2013-03-01 08:13:00,33.0,30.1,29.87,WNW,292,0.0,1.5,89,0.00,,---,0.00,VWS V14.00,2013-03-01 13:13:00,
2013-03-01 08:18:00,33.4,30.5,29.87,NW,315,0.0,1.5,89,0.00,,---,0.00,VWS V14.00,2013-03-01 13:18:00,
2013-03-01 08:23:00,33.6,30.7,29.87,NW,315,0.0,2.0,89,0.00,,---,0.00,VWS V14.00,2013-03-01 13:23:00,
2013-03-01 08:28:00,33.8,30.9,29.87,NW,315,0.0,2.0,89,0.00,,---,0.00,VWS V14.00,2013-03-01 13:28:00,
2013-03-01 08:33:00,33.9,30.7,29.87,NW,315,1.3,1.3,88,0.00,,---,0.00,VWS V14.00,2013-03-01 13:33:00,
2013-03-01 08:38:00,34.3,31.1,29.87,NW,315,0.0,2.4,88,0.00,,---,0.00,VWS V14.00,2013-03-01 13:38:00,
2013-03-01 08:43:00,34.3,31.1,29.87,NW,315,4.0,4.0,88,0.00,,---,0.00,VWS V14.00,2013-03-01 13:43:00,
2013-03-01 08:48:00,34.3,31.1,29.87,NW,315,0.0,4.0,88,0.00,,---,0.00,VWS V14.00,2013-03-01 13:48:00,
2013-03-01 08:53:00,34.5,31.3,29.87,NW,315,0.8,0.8,88,0.00,,---,0.00,VWS V14.00,2013-03-01 13:53:00,
2013-03-01 08:58:00,34.8,31.3,29.87,NW,315,1.7,1.7,87,0.00,,---,0.00,VWS V14.00,2013-03-01 13:58:00,
2013-03-01 09:03:00,35.2,31.7,29.87,NW,315,0.0,2.4,87,0.00,,---,0.00,VWS V14.00,2013-03-01 14:03:00,
2013-03-01 09:08:00,35.4,31.9,29.87,NW,315,2.0,2.4,87,0.00,,---,0.00,VWS V14.00,2013-03-01 14:08:00,
2013-03-01 09:13:00,35.7,32.2,29.88,NW,315,0.0,3.5,87,0.00,,---,0.00,VWS V14.00,2013-03-01 14:13:00,
2013-03-01 09:18:00,36.3,32.5,29.87,NW,315,0.6,3.5,86,0.00,,---,0.00,VWS V14.00,2013-03-01 14:18:00,
2013-03-01 09:23:00,36.3,32.2,29.87,NE,45,0.0,0.8,85,0.00,,---,0.00,VWS V14.00,2013-03-01 14:23:00,
2013-03-01 09:28:00,36.8,32.7,29.87,NE,45,0.0,3.5,85,0.00,,---,0.00,VWS V14.00,2013-03-01 14:28:00,
2013-03-01 09:33:00,37.2,32.8,29.87,NE,45,4.0,6.4,84,0.00,,---,0.00,VWS V14.00,2013-03-01 14:33:00,
2013-03-01 09:38:00,37.4,33.0,29.87,ENE,68,0.0,6.4,84,0.00,,---,0.00,VWS V14.00,2013-03-01 14:38:00,
2013-03-01 09:43:00,37.9,33.5,29.87,NNW,338,0.0,2.0,84,0.00,,---,0.00,VWS V14.00,2013-03-01 14:43:00,
2013-03-01 09:48:00,37.9,33.2,29.87,ENE,68,0.0,2.4,83,0.00,,---,0.00,VWS V14.00,2013-03-01 14:48:00,
2013-03-01 09:53:00,38.1,33.4,29.87,ENE,68,0.0,0.0,83,0.00,,---,0.00,VWS V14.00,2013-03-01 14:53:00,
2013-03-01 09:58:00,38.1,33.4,29.87,NNW,338,0.0,2.2,83,0.00,,---,0.00,VWS V14.00,2013-03-01 14:58:00,
2013-03-01 10:03:00,38.3,33.3,29.87,NNW,338,0.8,1.1,82,0.00,,---,0.00,VWS V14.00,2013-03-01 15:03:00,
2013-03-01 10:08:00,38.4,33.4,29.87,NW,315,1.7,1.7,82,0.00,,---,0.00,VWS V14.00,2013-03-01 15:08:00,
2013-03-01 10:13:00,38.4,33.4,29.87,NNE,22,0.6,3.3,82,0.00,,---,0.00,VWS V14.00,2013-03-01 15:13:00,
2013-03-01 10:18:00,39.0,34.0,29.87,WNW,292,2.4,4.4,82,0.00,,---,0.00,VWS V14.00,2013-03-01 15:18:00,
2013-03-01 10:23:00,39.0,33.7,29.87,WNW,292,1.1,2.2,81,0.00,,---,0.00,VWS V14.00,2013-03-01 15:23:00,
2013-03-01 10:28:00,39.3,34.0,29.87,WNW,292,1.7,2.2,81,0.00,,---,0.00,VWS V14.00,2013-03-01 15:28:00,
2013-03-01 10:33:00,39.0,33.4,29.87,West,270,0.8,1.7,80,0.00,,---,0.00,VWS V14.00,2013-03-01 15:33:00,
2013-03-01 10:38:00,39.3,33.7,29.87,West,270,0.0,1.7,80,0.00,,---,0.00,VWS V14.00,2013-03-01 15:38:00,
2013-03-01 10:43:00,39.0,33.4,29.87,NE,45,0.0,1.3,80,0.00,,---,0.00,VWS V14.00,2013-03-01 15:43:00,
2013-03-01 10:48:00,39.3,33.7,29.87,WNW,292,2.0,2.0,80,0.00,,---,0.00,VWS V14.00,2013-03-01 15:48:00,
2013-03-01 10:53:00,39.3,33.7,29.87,WNW,292,3.3,4.0,80,0.00,,---,0.00,VWS V14.00,2013-03-01 15:53:00,
2013-03-01 10:58:00,39.5,33.5,29.87,WNW,292,2.6,4.0,79,0.00,,---,0.00,VWS V14.00,2013-03-01 15:58:00,
2013-03-01 11:03:00,39.7,33.7,29.87,WNW,292,0.0,2.6,79,0.00,,---,0.00,VWS V14.00,2013-03-01 16:03:00,
2013-03-01 11:08:00,39.9,33.9,29.87,WNW,292,2.4,2.6,79,0.00,,---,0.00,VWS V14.00,2013-03-01 16:08:00,
2013-03-01 11:13:00,40.2,33.9,29.87,WNW,292,1.5,2.4,78,0.00,,---,0.00,VWS V14.00,2013-03-01 16:13:00,
2013-03-01 11:18:00,40.6,34.3,29.87,WNW,292,4.4,4.4,78,0.00,,---,0.00,VWS V14.00,2013-03-01 16:18:00,
2013-03-01 11:23:00,40.8,34.5,29.87,WNW,292,2.0,2.2,78,0.00,,---,0.00,VWS V14.00,2013-03-01 16:23:00,
2013-03-01 11:28:00,41.0,34.3,29.87,WNW,292,1.1,2.2,77,0.00,,---,0.00,VWS V14.00,2013-03-01 16:28:00,
2013-03-01 11:33:00,41.1,34.5,29.88,WNW,292,0.0,1.5,77,0.00,,---,0.00,VWS V14.00,2013-03-01 16:33:00,
2013-03-01 11:38:00,41.3,34.7,29.87,WNW,292,1.3,1.5,77,0.00,,---,0.00,VWS V14.00,2013-03-01 16:38:00,
2013-03-01 11:44:00,41.3,34.0,29.87,NNE,22,0.0,4.9,75,0.00,,---,0.00,VWS V14.00,2013-03-01 16:44:00,
2013-03-01 11:49:00,41.3,34.3,29.87,WNW,292,0.8,4.9,76,0.00,,---,0.00,VWS V14.00,2013-03-01 16:49:00,
2013-03-01 11:54:00,41.7,34.7,29.87,NNE,22,0.0,0.0,76,0.00,,---,0.00,VWS V14.00,2013-03-01 16:54:00,
2013-03-01 11:59:00,42.0,34.7,29.87,North,0,0.0,5.8,75,0.00,,---,0.00,VWS V14.00,2013-03-01 16:59:00,
2013-03-01 12:04:00,42.0,34.3,29.87,ENE,68,0.0,0.0,74,0.00,,---,0.00,VWS V14.00,2013-03-01 17:04:00,
2013-03-01 12:09:00,42.6,34.9,29.87,ENE,68,1.5,1.5,74,0.00,,---,0.00,VWS V14.00,2013-03-01 17:09:00,
2013-03-01 12:14:00,42.9,35.2,29.87,NNW,338,0.0,0.0,74,0.00,,---,0.00,VWS V14.00,2013-03-01 17:14:00,
2013-03-01 12:19:00,43.5,35.4,29.87,NNW,338,0.0,0.0,73,0.00,,---,0.00,VWS V14.00,2013-03-01 17:19:00,
2013-03-01 12:24:00,43.7,35.3,29.86,North,0,0.0,1.3,72,0.00,,---,0.00,VWS V14.00,2013-03-01 17:24:00,
2013-03-01 12:29:00,44.0,35.6,29.87,NE,45,0.0,1.3,72,0.00,,---,0.00,VWS V14.00,2013-03-01 17:29:00,
2013-03-01 12:34:00,44.4,35.6,29.86,NE,45,0.0,0.8,71,0.00,,---,0.00,VWS V14.00,2013-03-01 17:34:00,
2013-03-01 12:39:00,44.4,35.6,29.86,NW,315,0.4,0.8,71,0.00,,---,0.00,VWS V14.00,2013-03-01 17:39:00,
2013-03-01 12:44:00,44.6,35.8,29.86,North,0,0.0,0.4,71,0.00,,---,0.00,VWS V14.00,2013-03-01 17:44:00,
2013-03-01 12:49:00,45.1,36.3,29.87,WNW,292,3.1,3.1,71,0.00,,---,0.00,VWS V14.00,2013-03-01 17:49:00,
2013-03-01 12:54:00,45.1,35.9,29.86,NNW,338,0.0,5.3,70,0.00,,---,0.00,VWS V14.00,2013-03-01 17:54:00,
2013-03-01 12:59:00,45.3,35.7,29.86,WNW,292,2.4,5.3,69,0.00,,---,0.00,VWS V14.00,2013-03-01 17:59:00,
2013-03-01 13:04:00,45.1,35.9,29.86,WNW,292,1.3,1.3,70,0.00,,---,0.00,VWS V14.00,2013-03-01 18:04:00,
2013-03-01 13:09:00,45.1,35.9,29.86,WNW,292,1.3,1.3,70,0.00,,---,0.00,VWS V14.00,2013-03-01 18:09:00,
2013-03-01 13:14:00,45.1,35.5,29.85,WNW,292,1.5,1.5,69,0.00,,---,0.00,VWS V14.00,2013-03-01 18:14:00,
2013-03-01 13:19:00,44.9,35.7,29.85,NNE,22,0.0,1.5,70,0.00,,---,0.00,VWS V14.00,2013-03-01 18:19:00,
2013-03-01 13:24:00,44.9,35.7,29.85,WNW,292,2.6,2.6,70,0.00,,---,0.00,VWS V14.00,2013-03-01 18:24:00,
2013-03-01 13:29:00,45.3,36.1,29.85,West,270,5.5,5.5,70,0.00,,---,0.00,VWS V14.00,2013-03-01 18:29:00,
2013-03-01 13:34:00,45.3,36.1,29.85,WSW,248,2.6,2.6,70,0.00,,---,0.00,VWS V14.00,2013-03-01 18:34:00,
2013-03-01 13:39:00,44.9,35.4,29.85,NE,45,5.1,5.1,69,0.00,,---,0.00,VWS V14.00,2013-03-01 18:39:00,
2013-03-01 13:44:00,43.7,34.2,29.84,ENE,68,0.0,1.7,69,0.00,,---,0.00,VWS V14.00,2013-03-01 18:44:00,
2013-03-01 13:49:00,43.3,34.2,29.83,NNW,338,2.2,2.2,70,0.00,,---,0.00,VWS V14.00,2013-03-01 18:49:00,
2013-03-01 13:54:00,43.5,34.7,29.84,NW,315,0.6,2.9,71,0.00,,---,0.00,VWS V14.00,2013-03-01 18:54:00,
2013-03-01 13:59:00,44.4,35.6,29.84,NE,45,7.8,7.8,71,0.00,,---,0.00,VWS V14.00,2013-03-01 18:59:00,
2013-03-01 14:04:00,43.8,34.7,29.83,North,0,0.0,0.0,70,0.00,,---,0.00,VWS V14.00,2013-03-01 19:04:00,
2013-03-01 14:09:00,44.0,34.9,29.84,WNW,292,1.3,1.3,70,0.00,,---,0.00,VWS V14.00,2013-03-01 19:09:00,
2013-03-01 14:14:00,43.8,34.7,29.84,WNW,292,1.1,3.3,70,0.00,,---,0.00,VWS V14.00,2013-03-01 19:14:00,
2013-03-01 14:19:00,43.8,34.7,29.84,WNW,292,0.4,3.3,70,0.00,,---,0.00,VWS V14.00,2013-03-01 19:19:00,
2013-03-01 14:24:00,43.8,34.7,29.84,WNW,292,2.9,2.9,70,0.00,,---,0.00,VWS V14.00,2013-03-01 19:24:00,
2013-03-01 14:29:00,43.7,34.6,29.83,West,270,2.6,3.5,70,0.00,,---,0.00,VWS V14.00,2013-03-01 19:29:00,
2013-03-01 14:34:00,43.5,34.4,29.83,West,270,0.0,2.6,70,0.00,,---,0.00,VWS V14.00,2013-03-01 19:34:00,
2013-03-01 14:39:00,43.5,34.4,29.83,West,270,0.0,2.6,70,0.00,,---,0.00,VWS V14.00,2013-03-01 19:39:00,
2013-03-01 14:44:00,43.3,34.2,29.83,NW,315,2.0,2.0,70,0.00,,---,0.00,VWS V14.00,2013-03-01 19:44:00,
2013-03-01 14:49:00,43.1,34.3,29.83,West,270,4.9,4.9,71,0.00,,---,0.00,VWS V14.00,2013-03-01 19:49:00,
2013-03-01 14:54:00,42.9,34.2,29.83,West,270,0.0,4.9,71,0.00,,---,0.00,VWS V14.00,2013-03-01 19:54:00,
2013-03-01 14:59:00,42.9,34.2,29.83,WNW,292,0.8,4.9,71,0.00,,---,0.00,VWS V14.00,2013-03-01 19:59:00,
2013-03-01 15:04:00,42.6,33.5,29.83,NNW,338,2.4,5.1,70,0.00,,---,0.00,VWS V14.00,2013-03-01 20:04:00,
2013-03-01 15:09:00,42.4,33.7,29.83,North,0,0.0,5.1,71,0.00,,---,0.00,VWS V14.00,2013-03-01 20:09:00,
2013-03-01 15:14:00,42.4,33.7,29.83,NE,45,0.0,2.0,71,0.00,,---,0.00,VWS V14.00,2013-03-01 20:14:00,
2013-03-01 15:19:00,42.6,33.9,29.83,WNW,292,0.8,4.6,71,0.00,,---,0.00,VWS V14.00,2013-03-01 20:19:00,
2013-03-01 15:24:00,42.4,33.7,29.83,WNW,292,2.9,4.6,71,0.00,,---,0.00,VWS V14.00,2013-03-01 20:24:00,
2013-03-01 15:30:00,42.4,33.7,29.83,WNW,292,2.2,4.6,71,0.00,,---,0.00,VWS V14.00,2013-03-01 20:30:00,
2013-03-01 15:35:00,42.4,33.7,29.83,WNW,292,1.3,2.9,71,0.00,,---,0.00,VWS V14.00,2013-03-01 20:35:00,
2013-03-01 15:40:00,42.0,33.3,29.83,WNW,292,0.0,2.9,71,0.00,,---,0.00,VWS V14.00,2013-03-01 20:40:00,
2013-03-01 15:45:00,42.2,33.5,29.83,WNW,292,1.7,3.1,71,0.00,,---,0.00,VWS V14.00,2013-03-01 20:45:00,
2013-03-01 15:50:00,42.4,33.7,29.83,WNW,292,0.4,3.1,71,0.00,,---,0.00,VWS V14.00,2013-03-01 20:50:00,
2013-03-01 15:55:00,42.4,33.7,29.83,NE,45,0.0,3.1,71,0.00,,---,0.00,VWS V14.00,2013-03-01 20:55:00,
2013-03-01 16:00:00,42.6,33.9,29.83,ENE,68,1.1,3.1,71,0.00,,---,0.00,VWS V14.00,2013-03-01 21:00:00,
2013-03-01 16:05:00,42.6,33.9,29.83,ENE,68,0.0,2.0,71,0.00,,---,0.00,VWS V14.00,2013-03-01 21:05:00,
2013-03-01 16:10:00,42.6,33.9,29.83,NE,45,6.7,6.7,71,0.00,,---,0.00,VWS V14.00,2013-03-01 21:10:00,
2013-03-01 16:15:00,42.0,33.3,29.83,ENE,68,0.0,6.7,71,0.00,,---,0.00,VWS V14.00,2013-03-01 21:15:00,
2013-03-01 16:20:00,42.0,33.3,29.83,NNW,338,2.4,2.4,71,0.00,,---,0.00,VWS V14.00,2013-03-01 21:20:00,
2013-03-01 16:25:00,42.0,33.3,29.83,WNW,292,1.3,2.4,71,0.00,,---,0.00,VWS V14.00,2013-03-01 21:25:00,
2013-03-01 16:30:00,42.0,33.3,29.83,WNW,292,3.1,3.1,71,0.00,,---,0.00,VWS V14.00,2013-03-01 21:30:00,
2013-03-01 16:35:00,42.0,32.9,29.83,WNW,292,4.0,4.0,70,0.00,,---,0.00,VWS V14.00,2013-03-01 21:35:00,
2013-03-01 16:40:00,41.7,33.0,29.83,WNW,292,0.0,4.0,71,0.00,,---,0.00,VWS V14.00,2013-03-01 21:40:00,
2013-03-01 16:45:00,41.7,33.0,29.83,WNW,292,2.0,2.4,71,0.00,,---,0.00,VWS V14.00,2013-03-01 21:45:00,
2013-03-01 16:50:00,41.5,32.8,29.83,NNW,338,1.1,1.1,71,0.00,,---,0.00,VWS V14.00,2013-03-01 21:50:00,
2013-03-01 16:55:00,41.1,32.4,29.83,NE,45,0.0,1.1,71,0.00,,---,0.00,VWS V14.00,2013-03-01 21:55:00,
2013-03-01 17:00:00,40.8,32.1,29.83,NW,315,3.1,3.1,71,0.00,,---,0.00,VWS V14.00,2013-03-01 22:00:00,
2013-03-01 17:05:00,40.6,32.0,29.83,NW,315,0.0,3.1,71,0.00,,---,0.00,VWS V14.00,2013-03-01 22:05:00,
2013-03-01 17:10:00,40.4,32.1,29.84,NW,315,1.5,1.5,72,0.00,,---,0.00,VWS V14.00,2013-03-01 22:10:00,
2013-03-01 17:15:00,40.2,31.9,29.84,NW,315,3.3,3.3,72,0.00,,---,0.00,VWS V14.00,2013-03-01 22:15:00,
2013-03-01 17:20:00,40.2,31.9,29.85,NW,315,2.0,2.0,72,0.00,,---,0.00,VWS V14.00,2013-03-01 22:20:00,
2013-03-01 17:25:00,39.9,31.6,29.85,NW,315,3.5,3.5,72,0.00,,---,0.00,VWS V14.00,2013-03-01 22:25:00,
2013-03-01 17:30:00,39.5,31.6,29.85,WNW,292,1.5,1.5,73,0.00,,---,0.00,VWS V14.00,2013-03-01 22:30:00,
2013-03-01 17:35:00,39.3,31.4,29.85,WNW,292,3.1,3.1,73,0.00,,---,0.00,VWS V14.00,2013-03-01 22:35:00,
2013-03-01 17:40:00,39.0,31.1,29.85,WNW,292,0.6,0.6,73,0.00,,---,0.00,VWS V14.00,2013-03-01 22:40:00,
2013-03-01 17:45:00,38.8,30.9,29.85,NW,315,1.7,2.0,73,0.00,,---,0.00,VWS V14.00,2013-03-01 22:45:00,
2013-03-01 17:50:00,38.8,30.9,29.85,NW,315,2.0,2.0,73,0.00,,---,0.00,VWS V14.00,2013-03-01 22:50:00,
2013-03-01 17:55:00,38.4,30.5,29.84,WNW,292,0.0,3.1,73,0.00,,---,0.00,VWS V14.00,2013-03-01 22:55:00,
2013-03-01 18:00:00,38.3,30.4,29.84,WNW,292,2.9,2.9,73,0.00,,---,0.00,VWS V14.00,2013-03-01 23:00:00,
2013-03-01 18:05:00,38.3,30.4,29.84,WNW,292,0.0,2.9,73,0.00,,---,0.00,VWS V14.00,2013-03-01 23:05:00,
2013-03-01 18:10:00,38.1,30.6,29.84,WNW,292,0.0,0.0,74,0.00,,---,0.00,VWS V14.00,2013-03-01 23:10:00,
2013-03-01 18:15:00,37.9,30.4,29.85,WNW,292,0.6,1.1,74,0.00,,---,0.00,VWS V14.00,2013-03-01 23:15:00,
2013-03-01 18:20:00,37.7,30.2,29.85,WNW,292,2.2,2.2,74,0.00,,---,0.00,VWS V14.00,2013-03-01 23:20:00,
2013-03-01 18:25:00,37.7,30.5,29.85,WNW,292,2.4,3.1,75,0.00,,---,0.00,VWS V14.00,2013-03-01 23:25:00,
2013-03-01 18:30:00,37.4,30.2,29.85,NE,45,0.0,0.0,75,0.00,,---,0.00,VWS V14.00,2013-03-01 23:30:00,
2013-03-01 18:35:00,37.2,30.0,29.85,NNE,22,0.2,0.8,75,0.00,,---,0.00,VWS V14.00,2013-03-01 23:35:00,
2013-03-01 18:40:00,37.2,30.0,29.85,North,0,0.0,0.0,75,0.00,,---,0.00,VWS V14.00,2013-03-01 23:40:00,
2013-03-01 18:45:00,37.0,30.1,29.85,WNW,292,2.0,2.0,76,0.00,,---,0.00,VWS V14.00,2013-03-01 23:45:00,
2013-03-01 18:50:00,36.8,30.0,29.85,WNW,292,0.0,0.0,76,0.00,,---,0.00,VWS V14.00,2013-03-01 23:50:00,
2013-03-01 18:55:00,36.8,30.3,29.85,West,270,2.4,2.4,77,0.00,,---,0.00,VWS V14.00,2013-03-01 23:55:00,
2013-03-01 19:00:00,36.6,30.1,29.85,West,270,0.0,0.0,77,0.00,,---,0.00,VWS V14.00,2013-03-02 00:00:00,
2013-03-01 19:05:00,36.6,30.1,29.85,West,270,3.5,3.5,77,0.00,,---,0.00,VWS V14.00,2013-03-02 00:05:00,
2013-03-01 19:10:00,36.5,30.0,29.85,West,270,0.0,0.0,77,0.00,,---,0.00,VWS V14.00,2013-03-02 00:10:00,
2013-03-01 19:15:00,36.5,30.3,29.85,ENE,68,0.0,3.1,78,0.00,,---,0.00,VWS V14.00,2013-03-02 00:15:00,
2013-03-01 19:20:00,36.3,30.1,29.85,ENE,68,2.0,2.0,78,0.00,,---,0.00,VWS V14.00,2013-03-02 00:20:00,
2013-03-01 19:25:00,36.3,30.1,29.85,ENE,68,0.0,2.0,78,0.00,,---,0.00,VWS V14.00,2013-03-02 00:25:00,
2013-03-01 19:30:00,36.3,30.1,29.86,ENE,68,0.0,0.0,78,0.00,,---,0.00,VWS V14.00,2013-03-02 00:30:00,
2013-03-01 19:35:00,36.3,30.1,29.86,NW,315,5.1,5.1,78,0.00,,---,0.00,VWS V14.00,2013-03-02 00:35:00,
2013-03-01 19:41:00,36.1,29.9,29.86,NW,315,0.0,0.0,78,0.00,,---,0.00,VWS V14.00,2013-03-02 00:41:00,
2013-03-01 19:46:00,36.1,30.2,29.86,NW,315,0.0,0.0,79,0.00,,---,0.00,VWS V14.00,2013-03-02 00:46:00,
2013-03-01 19:51:00,36.1,30.2,29.86,NW,315,0.0,0.0,79,0.00,,---,0.00,VWS V14.00,2013-03-02 00:51:00,
2013-03-01 19:56:00,36.1,30.2,29.86,NW,315,0.0,1.7,79,0.00,,---,0.00,VWS V14.00,2013-03-02 00:56:00,
2013-03-01 20:01:00,35.9,30.0,29.86,ENE,68,9.3,9.3,79,0.00,,---,0.00,VWS V14.00,2013-03-02 01:01:00,
2013-03-01 20:06:00,35.9,30.0,29.86,North,0,0.8,9.3,79,0.00,,---,0.00,VWS V14.00,2013-03-02 01:06:00,
2013-03-01 20:11:00,35.7,30.1,29.86,ENE,68,0.0,0.0,80,0.00,,---,0.00,VWS V14.00,2013-03-02 01:11:00,
2013-03-01 20:16:00,35.7,30.1,29.86,ENE,68,0.0,3.1,80,0.00,,---,0.00,VWS V14.00,2013-03-02 01:16:00,
2013-03-01 20:21:00,35.7,30.1,29.86,ENE,68,0.0,0.0,80,0.00,,---,0.00,VWS V14.00,2013-03-02 01:21:00,
2013-03-01 20:26:00,35.7,30.1,29.86,NW,315,0.0,3.1,80,0.00,,---,0.00,VWS V14.00,2013-03-02 01:26:00,
2013-03-01 20:31:00,35.7,30.1,29.86,NW,315,0.0,0.0,80,0.00,,---,0.00,VWS V14.00,2013-03-02 01:31:00,
2013-03-01 20:36:00,35.7,30.1,29.86,NW,315,1.5,1.5,80,0.00,,---,0.00,VWS V14.00,2013-03-02 01:36:00,
2013-03-01 20:41:00,35.6,30.0,29.86,NW,315,0.0,0.0,80,0.00,,---,0.00,VWS V14.00,2013-03-02 01:41:00,
2013-03-01 20:46:00,35.4,29.9,29.86,ENE,68,0.0,0.0,80,0.00,,---,0.00,VWS V14.00,2013-03-02 01:46:00,
2013-03-01 20:51:00,35.4,29.9,29.86,North,0,0.0,0.0,80,0.00,,---,0.00,VWS V14.00,2013-03-02 01:51:00,
2013-03-01 20:56:00,35.4,29.9,29.86,North,0,1.1,1.1,80,0.00,,---,0.00,VWS V14.00,2013-03-02 01:56:00,
2013-03-01 21:01:00,35.4,29.9,29.86,WNW,292,0.8,0.8,80,0.00,,---,0.00,VWS V14.00,2013-03-02 02:01:00,
2013-03-01 21:06:00,35.4,29.9,29.86,WNW,292,1.1,1.1,80,0.00,,---,0.00,VWS V14.00,2013-03-02 02:06:00,
2013-03-01 21:11:00,35.4,29.9,29.86,NNW,338,0.0,0.0,80,0.00,,---,0.00,VWS V14.00,2013-03-02 02:11:00,
2013-03-01 21:16:00,35.4,29.9,29.86,NW,315,3.3,3.3,80,0.00,,---,0.00,VWS V14.00,2013-03-02 02:16:00,
2013-03-01 21:21:00,35.4,29.9,29.86,NW,315,3.3,3.3,80,0.00,,---,0.00,VWS V14.00,2013-03-02 02:21:00,
2013-03-01 21:26:00,35.4,29.9,29.85,NW,315,0.0,3.3,80,0.00,,---,0.00,VWS V14.00,2013-03-02 02:26:00,
2013-03-01 21:31:00,35.2,29.7,29.86,NNW,338,0.0,0.0,80,0.00,,---,0.00,VWS V14.00,2013-03-02 02:31:00,
2013-03-01 21:36:00,35.2,30.0,29.86,NW,315,0.0,0.0,81,0.00,,---,0.00,VWS V14.00,2013-03-02 02:36:00,
2013-03-01 21:41:00,35.2,30.0,29.87,NW,315,0.0,0.0,81,0.00,,---,0.00,VWS V14.00,2013-03-02 02:41:00,
2013-03-01 21:46:00,35.2,30.0,29.86,NW,315,0.0,0.0,81,0.00,,---,0.00,VWS V14.00,2013-03-02 02:46:00,
2013-03-01 21:51:00,35.2,30.0,29.86,NW,315,0.0,0.0,81,0.00,,---,0.00,VWS V14.00,2013-03-02 02:51:00,
2013-03-01 21:56:00,35.2,30.0,29.86,NW,315,0.0,0.0,81,0.00,,---,0.00,VWS V14.00,2013-03-02 02:56:00,
2013-03-01 22:01:00,35.2,30.0,29.87,NW,315,0.0,0.0,81,0.00,,---,0.00,VWS V14.00,2013-03-02 03:01:00,
2013-03-01 22:06:00,35.2,30.0,29.87,NW,315,0.0,2.4,81,0.00,,---,0.00,VWS V14.00,2013-03-02 03:06:00,
2013-03-01 22:11:00,35.2,30.0,29.87,NW,315,0.0,0.0,81,0.00,,---,0.00,VWS V14.00,2013-03-02 03:11:00,
2013-03-01 22:16:00,35.2,30.0,29.87,NW,315,0.8,0.8,81,0.00,,---,0.00,VWS V14.00,2013-03-02 03:16:00,
2013-03-01 22:21:00,35.0,30.1,29.87,NW,315,0.0,0.8,82,0.00,,---,0.00,VWS V14.00,2013-03-02 03:21:00,
2013-03-01 22:26:00,35.0,30.1,29.87,NW,315,0.2,0.8,82,0.00,,---,0.00,VWS V14.00,2013-03-02 03:26:00,
2013-03-01 22:31:00,35.0,30.1,29.87,NW,315,0.0,0.0,82,0.00,,---,0.00,VWS V14.00,2013-03-02 03:31:00,
2013-03-01 22:36:00,34.8,29.9,29.87,NW,315,0.0,0.0,82,0.00,,---,0.00,VWS V14.00,2013-03-02 03:36:00,
2013-03-01 22:41:00,34.8,29.9,29.86,NW,315,0.6,0.6,82,0.00,,---,0.00,VWS V14.00,2013-03-02 03:41:00,
2013-03-01 22:46:00,34.8,29.9,29.86,NW,315,0.0,0.6,82,0.00,,---,0.00,VWS V14.00,2013-03-02 03:46:00,
2013-03-01 22:51:00,34.8,29.9,29.86,NW,315,0.2,0.4,82,0.00,,---,0.00,VWS V14.00,2013-03-02 03:51:00,
2013-03-01 22:56:00,34.8,29.9,29.86,NW,315,0.0,0.4,82,0.00,,---,0.00,VWS V14.00,2013-03-02 03:56:00,
2013-03-01 23:01:00,34.8,30.2,29.85,NW,315,0.0,0.0,83,0.00,,---,0.00,VWS V14.00,2013-03-02 04:01:00,
2013-03-01 23:06:00,34.7,30.1,29.85,NW,315,1.5,1.5,83,0.00,,---,0.00,VWS V14.00,2013-03-02 04:06:00,
2013-03-01 23:11:00,34.7,30.1,29.85,NW,315,0.6,0.6,83,0.00,,---,0.00,VWS V14.00,2013-03-02 04:11:00,
2013-03-01 23:16:00,34.7,30.1,29.85,NNW,338,0.6,0.6,83,0.00,,---,0.00,VWS V14.00,2013-03-02 04:16:00,
2013-03-01 23:21:00,34.5,30.2,29.85,NW,315,0.0,0.4,84,0.00,,---,0.00,VWS V14.00,2013-03-02 04:21:00,
2013-03-01 23:26:00,34.5,30.2,29.85,NW,315,0.0,0.4,84,0.00,,---,0.00,VWS V14.00,2013-03-02 04:26:00,
2013-03-01 23:32:00,34.5,30.2,29.85,NW,315,0.0,0.0,84,0.00,,---,0.00,VWS V14.00,2013-03-02 04:32:00,
2013-03-01 23:37:00,34.3,30.0,29.85,NW,315,0.0,1.3,84,0.00,,---,0.00,VWS V14.00,2013-03-02 04:37:00,
2013-03-01 23:42:00,34.3,30.0,29.85,NW,315,0.0,0.0,84,0.00,,---,0.00,VWS V14.00,2013-03-02 04:42:00,
2013-03-01 23:47:00,34.3,30.0,29.85,NW,315,0.6,0.6,84,0.00,,---,0.00,VWS V14.00,2013-03-02 04:47:00,
2013-03-01 23:52:00,34.3,30.3,29.85,NW,315,0.0,0.0,85,0.00,,---,0.00,VWS V14.00,2013-03-02 04:52:00,
2013-03-01 23:57:00,34.3,30.3,29.85,NW,315,0.0,0.0,85,0.00,,---,0.00,VWS V14.00,2013-03-02 04:57:00,